Pagrindinis puslapis
METAR-TAF:

METAR-TAF

Oro uostai :

Suva, Fidžis

platuma: 18-03S, ilguma: 178-34E, Aukštis: 5 m

Dabartinis oras

Ataskaita buvo paskelbta 1 valandą ir 18 minutes, ne 09:00 UTC
Vėjas 7 kt iš Rytų/Pietryčių
Temperatūra 23°C
Drėgmė 69%
Slėgis 1016 hPa
Matomumas 10 km arba daugiau
Išsisklaidę debesys ne aukštis 2000 ft
Su prošvaistėmis ne aukštis 4200 ft

METAR: NFNA 220900Z 12007KT 9999 SCT020 BKN042 23/17 Q1016

Laikas: 22:18 (10:18 UTC)

Prognozė

Ataskaita buvo paskelbta 5 valandos ir 11 minutes, ne 05:07 UTC
Prognozė galioja nuo 22 metu 06 UTC su 23 metu 06 UTC
Vėjas 7 kt iš Rytų
Matomumas 10 km arba daugiau
Išsisklaidę debesys ne aukštis 2000 ft
Išsisklaidę debesys ne aukštis 4500 ft

TAF: NFNA 220507Z 2206/2306 10007KT 9999 SCT020 SCT045

Orai ataskaitas ir orų prognozės (METAR, TAF).

turimą stotys yra geltonos ir raudonos taškus žemėlapyje.

Perkelti pele per norėdami pamatyti stoties vardą.

Tada spustelėkite, norėdami matyti oro stebėjimo ir prognozės.

Norėdami pakeisti žemėlapį: spustelėkite ant žalios mygtukų su juodo kryžiaus žemyn,; žalią mygtuką su brūkšneliu, jei norite nutolinti; arba žalių rodyklių gretimoms žemėlapius.


METAR-TAF: